createdAt,value
2018-10-17T00:00:57.376Z,9.62
2018-10-17T00:01:57.369Z,9.59
2018-10-17T00:02:57.361Z,9.59
2018-10-17T00:03:57.351Z,9.56
2018-10-17T00:04:57.395Z,9.59
2018-10-17T00:05:57.341Z,9.58
2018-10-17T00:06:57.358Z,9.51
2018-10-17T00:07:57.336Z,9.59
2018-10-17T00:08:57.322Z,9.54
2018-10-17T00:09:57.322Z,9.44
2018-10-17T00:10:57.319Z,9.51
2018-10-17T00:11:57.312Z,9.55
2018-10-17T00:12:57.324Z,9.55
2018-10-17T00:13:57.303Z,9.54
2018-10-17T00:14:57.294Z,9.59
2018-10-17T00:15:57.294Z,9.51
2018-10-17T00:16:57.323Z,9.54
2018-10-17T00:17:57.276Z,9.56
2018-10-17T00:18:57.294Z,9.59
2018-10-17T00:19:57.268Z,9.58
2018-10-17T00:20:57.264Z,9.46
2018-10-17T00:21:57.256Z,9.54
2018-10-17T00:22:57.303Z,9.58
2018-10-17T00:23:57.247Z,9.59
2018-10-17T00:24:57.258Z,9.41
2018-10-17T00:25:57.236Z,9.54
2018-10-17T00:26:57.233Z,9.51
2018-10-17T00:27:57.233Z,9.59
2018-10-17T00:28:57.240Z,9.47
2018-10-17T00:29:57.235Z,9.58
2018-10-17T00:30:57.271Z,9.40
2018-10-17T00:31:57.205Z,9.47
2018-10-17T00:32:57.199Z,9.44
2018-10-17T00:33:57.191Z,9.48
2018-10-17T00:34:57.188Z,9.55
2018-10-17T00:35:57.185Z,9.56
2018-10-17T00:36:57.265Z,9.48
2018-10-17T00:37:57.176Z,9.51
2018-10-17T00:38:57.169Z,9.54
2018-10-17T00:39:57.214Z,9.44
2018-10-17T00:40:57.212Z,9.51
2018-10-17T00:41:57.154Z,9.48
2018-10-17T00:42:57.199Z,9.40
2018-10-17T00:43:57.142Z,9.44
2018-10-17T00:44:57.137Z,9.46
2018-10-17T00:45:57.131Z,9.36
2018-10-17T00:46:57.168Z,9.46
2018-10-17T00:47:57.123Z,9.40
2018-10-17T00:48:57.139Z,9.44
2018-10-17T00:49:57.110Z,9.40
2018-10-17T00:50:57.105Z,9.36
2018-10-17T00:51:57.098Z,9.34
2018-10-17T00:52:57.155Z,9.31
2018-10-17T00:53:57.089Z,9.34
2018-10-17T00:54:57.109Z,9.37
2018-10-17T00:55:57.080Z,9.23
2018-10-17T00:56:57.079Z,9.31
2018-10-17T00:57:57.071Z,9.29
2018-10-17T00:58:57.066Z,9.29
2018-10-17T00:59:57.052Z,9.25
2018-10-17T01:00:57.104Z,9.21
2018-10-17T01:01:57.047Z,9.23
2018-10-17T01:02:57.042Z,9.14
2018-10-17T01:03:57.040Z,9.22
2018-10-17T01:04:57.041Z,9.21
2018-10-17T01:05:57.031Z,9.19
2018-10-17T01:06:57.029Z,9.25
2018-10-17T01:07:57.022Z,9.14
2018-10-17T01:08:57.007Z,9.13
2018-10-17T01:09:57.001Z,9.14
2018-10-17T01:10:57.000Z,9.08
2018-10-17T01:11:56.993Z,9.11
2018-10-17T01:12:57.031Z,9.00
2018-10-17T01:13:56.989Z,9.02
2018-10-17T01:14:56.978Z,9.02
2018-10-17T01:15:56.977Z,9.11
2018-10-17T01:16:56.982Z,9.04
2018-10-17T01:17:56.961Z,9.08
2018-10-17T01:18:57.800Z,9.06
2018-10-17T01:19:56.953Z,9.08
2018-10-17T01:20:56.946Z,9.03
2018-10-17T01:21:56.941Z,9.08
2018-10-17T01:22:56.945Z,9.10
2018-10-17T01:23:56.930Z,9.16
2018-10-17T01:24:56.931Z,9.13
2018-10-17T01:25:56.921Z,9.11
2018-10-17T01:26:56.913Z,9.13
2018-10-17T01:27:56.909Z,9.10
2018-10-17T01:28:56.954Z,9.13
2018-10-17T01:29:56.900Z,9.00
2018-10-17T01:30:56.939Z,9.10
2018-10-17T01:31:56.889Z,9.02
2018-10-17T01:32:56.880Z,9.06
2018-10-17T01:33:56.871Z,9.10
2018-10-17T01:34:56.886Z,9.06
2018-10-17T01:35:56.862Z,9.00
2018-10-17T01:36:56.889Z,8.97
2018-10-17T01:37:56.852Z,8.99
2018-10-17T01:38:56.851Z,8.88
2018-10-17T01:39:56.841Z,8.95
2018-10-17T01:40:56.895Z,8.97
2018-10-17T01:41:56.831Z,8.95
2018-10-17T01:42:56.851Z,8.85
2018-10-17T01:43:56.817Z,8.88
2018-10-17T01:44:56.811Z,8.89
2018-10-17T01:45:56.812Z,8.88
2018-10-17T01:46:56.843Z,8.87
2018-10-17T01:47:56.797Z,8.81
2018-10-17T01:48:56.837Z,8.82
2018-10-17T01:49:56.788Z,8.84
2018-10-17T01:50:56.778Z,8.87
2018-10-17T01:51:56.773Z,8.89
2018-10-17T01:52:56.810Z,8.92
2018-10-17T01:53:56.761Z,8.85
2018-10-17T01:54:56.832Z,8.92
2018-10-17T01:55:56.759Z,8.84
2018-10-17T01:56:56.748Z,8.88
2018-10-17T01:57:56.740Z,8.85
2018-10-17T01:58:56.757Z,8.85
2018-10-17T01:59:56.728Z,8.78
2018-10-17T02:00:56.760Z,8.81
2018-10-17T02:01:56.715Z,8.74
2018-10-17T02:02:56.720Z,8.85
2018-10-17T02:03:56.710Z,8.81
2018-10-17T02:04:56.733Z,8.61
2018-10-17T02:05:56.694Z,8.73
2018-10-17T02:06:56.707Z,8.73
2018-10-17T02:07:56.684Z,8.63
2018-10-17T02:08:56.684Z,8.79
2018-10-17T02:09:56.671Z,8.81
2018-10-17T02:10:56.692Z,8.66
2018-10-17T02:11:56.662Z,8.69
2018-10-17T02:12:56.693Z,8.66
2018-10-17T02:13:56.648Z,8.52
2018-10-17T02:14:56.644Z,8.56
2018-10-17T02:15:56.636Z,8.51
2018-10-17T02:16:56.654Z,8.44
2018-10-17T02:17:56.626Z,8.48
2018-10-17T02:18:56.673Z,8.51
2018-10-17T02:19:56.615Z,8.53
2018-10-17T02:20:56.610Z,8.51
2018-10-17T02:21:56.607Z,8.51
2018-10-17T02:22:56.630Z,8.53
2018-10-17T02:23:56.594Z,8.55
2018-10-17T02:24:56.636Z,8.46
2018-10-17T02:25:56.581Z,8.58
2018-10-17T02:26:56.573Z,8.56
2018-10-17T02:27:56.570Z,8.58
2018-10-17T02:28:56.578Z,8.60
2018-10-17T02:29:56.605Z,8.51
2018-10-17T02:30:56.558Z,8.56
2018-10-17T02:31:56.548Z,8.49
2018-10-17T02:32:56.544Z,8.60
2018-10-17T02:33:56.537Z,8.52
2018-10-17T02:34:56.605Z,8.53
2018-10-17T02:35:56.524Z,8.55
2018-10-17T02:36:56.613Z,8.45
2018-10-17T02:37:56.512Z,8.53
2018-10-17T02:38:56.514Z,8.48
2018-10-17T02:39:56.502Z,8.63
2018-10-17T02:40:56.523Z,8.67
2018-10-17T02:41:56.490Z,8.55
2018-10-17T02:42:56.538Z,8.56
2018-10-17T02:43:56.480Z,8.61
2018-10-17T02:44:56.473Z,8.60
2018-10-17T02:45:56.470Z,8.53
2018-10-17T02:46:56.500Z,8.44
2018-10-17T02:47:56.453Z,8.37
2018-10-17T02:48:56.487Z,8.33
2018-10-17T02:49:56.446Z,8.31
2018-10-17T02:50:56.438Z,8.36
2018-10-17T02:51:56.434Z,8.34
2018-10-17T02:52:56.463Z,8.24
2018-10-17T02:53:56.422Z,8.27
2018-10-17T02:54:56.467Z,8.19
2018-10-17T02:55:56.410Z,8.27
2018-10-17T02:56:56.402Z,8.30
2018-10-17T02:57:56.397Z,8.27
2018-10-17T02:58:56.424Z,8.27
2018-10-17T02:59:56.389Z,8.24
2018-10-17T03:00:56.398Z,8.36
2018-10-17T03:01:56.372Z,8.28
2018-10-17T03:02:56.372Z,8.33
2018-10-17T03:03:56.370Z,8.27
2018-10-17T03:04:56.450Z,8.41
2018-10-17T03:05:56.352Z,8.38
2018-10-17T03:06:56.349Z,8.45
2018-10-17T03:07:56.338Z,8.41
2018-10-17T03:08:56.330Z,8.42
2018-10-17T03:09:56.327Z,8.46
2018-10-17T03:10:56.901Z,8.52
2018-10-17T03:11:56.317Z,8.46
2018-10-17T03:12:56.337Z,8.46
2018-10-17T03:13:56.304Z,8.46
2018-10-17T03:14:56.324Z,8.44
2018-10-17T03:15:56.293Z,8.46
2018-10-17T03:16:56.298Z,8.42
2018-10-17T03:17:56.286Z,8.41
2018-10-17T03:18:56.327Z,8.38
2018-10-17T03:19:56.270Z,8.34
2018-10-17T03:20:56.262Z,8.30
2018-10-17T03:21:56.257Z,8.41
2018-10-17T03:22:56.294Z,8.37
2018-10-17T03:23:56.252Z,8.31
2018-10-17T03:24:56.255Z,8.27
2018-10-17T03:25:56.237Z,8.41
2018-10-17T03:26:56.231Z,8.28
2018-10-17T03:27:56.260Z,8.30
2018-10-17T03:28:56.235Z,8.27
2018-10-17T03:29:56.211Z,8.23
2018-10-17T03:30:56.249Z,8.30
2018-10-17T03:31:56.199Z,8.26
2018-10-17T03:32:56.191Z,8.26
2018-10-17T03:33:56.190Z,8.27
2018-10-17T03:34:56.213Z,8.28
2018-10-17T03:35:56.255Z,8.28
2018-10-17T03:36:56.219Z,8.20
2018-10-17T03:37:56.163Z,8.18
2018-10-17T03:38:56.158Z,8.26
2018-10-17T03:39:56.156Z,8.30
2018-10-17T03:40:56.173Z,8.23
2018-10-17T03:41:56.142Z,8.23
2018-10-17T03:42:56.193Z,8.27
2018-10-17T03:43:56.128Z,8.28
2018-10-17T03:44:56.122Z,8.19
2018-10-17T03:45:56.115Z,8.28
2018-10-17T03:46:56.140Z,8.30
2018-10-17T03:47:56.103Z,8.30
2018-10-17T03:48:56.150Z,8.19
2018-10-17T03:49:56.208Z,8.27
2018-10-17T03:50:56.092Z,8.18
2018-10-17T03:51:56.086Z,8.13
2018-10-17T03:52:56.152Z,8.18
2018-10-17T03:53:56.065Z,8.24
2018-10-17T03:54:56.065Z,8.10
2018-10-17T03:55:56.067Z,8.23
2018-10-17T03:56:56.053Z,8.26
2018-10-17T03:57:56.052Z,8.31
2018-10-17T03:58:56.065Z,8.27
2018-10-17T03:59:56.035Z,8.18
2018-10-17T04:00:56.112Z,8.18
2018-10-17T04:01:56.020Z,8.15
2018-10-17T04:02:56.080Z,8.19
2018-10-17T04:03:56.006Z,8.20
2018-10-17T04:04:56.031Z,8.23
2018-10-17T04:05:55.999Z,8.15
2018-10-17T04:06:56.004Z,8.16
2018-10-17T04:07:55.995Z,8.16
2018-10-17T04:08:55.976Z,8.12
2018-10-17T04:09:55.970Z,8.08
2018-10-17T04:10:56.003Z,8.00
2018-10-17T04:11:55.963Z,7.95
2018-10-17T04:12:56.001Z,7.95
2018-10-17T04:13:55.949Z,7.85
2018-10-17T04:14:55.942Z,7.85
2018-10-17T04:15:55.938Z,7.77
2018-10-17T04:16:55.992Z,7.79
2018-10-17T04:17:55.927Z,7.69
2018-10-17T04:18:55.959Z,7.79
2018-10-17T04:19:55.915Z,7.77
2018-10-17T04:20:55.911Z,7.72
2018-10-17T04:21:55.900Z,7.67
2018-10-17T04:22:55.910Z,7.82
2018-10-17T04:23:55.889Z,7.83
2018-10-17T04:24:55.919Z,7.75
2018-10-17T04:25:55.880Z,7.95
2018-10-17T04:26:55.875Z,7.87
2018-10-17T04:27:55.866Z,7.82
2018-10-17T04:28:55.872Z,7.93
2018-10-17T04:29:55.852Z,7.85
2018-10-17T04:30:55.855Z,7.90
2018-10-17T04:31:55.839Z,7.77
2018-10-17T04:32:55.834Z,7.73
2018-10-17T04:33:55.825Z,7.85
2018-10-17T04:34:55.834Z,7.82
2018-10-17T04:35:55.831Z,7.72
2018-10-17T04:36:55.860Z,7.77
2018-10-17T04:37:55.801Z,7.70
2018-10-17T04:38:55.799Z,7.79
2018-10-17T04:39:55.790Z,7.76
2018-10-17T04:40:55.814Z,7.76
2018-10-17T04:41:55.776Z,7.66
2018-10-17T04:42:55.844Z,7.79
2018-10-17T04:43:55.768Z,7.79
2018-10-17T04:44:55.759Z,7.73
2018-10-17T04:45:55.754Z,7.76
2018-10-17T04:46:55.809Z,7.70
2018-10-17T04:47:55.747Z,7.67
2018-10-17T04:48:55.767Z,7.67
2018-10-17T04:49:55.727Z,7.70
2018-10-17T04:50:55.719Z,7.72
2018-10-17T04:51:55.718Z,7.69
2018-10-17T04:52:55.721Z,7.73
2018-10-17T04:53:55.706Z,7.76
2018-10-17T04:54:55.707Z,7.75
2018-10-17T04:55:55.693Z,7.69
2018-10-17T04:56:55.692Z,7.61
2018-10-17T04:57:55.682Z,7.75
2018-10-17T04:58:55.701Z,7.69
2018-10-17T04:59:55.670Z,7.76
2018-10-17T05:00:55.695Z,7.76
2018-10-17T05:01:55.660Z,7.73
2018-10-17T05:02:55.653Z,7.76
2018-10-17T05:03:55.643Z,7.73
2018-10-17T05:04:55.672Z,7.73
2018-10-17T05:05:55.631Z,7.73
2018-10-17T05:06:55.729Z,7.63
2018-10-17T05:07:55.619Z,7.57
2018-10-17T05:08:55.621Z,7.61
2018-10-17T05:09:55.612Z,7.66
2018-10-17T05:10:55.657Z,7.69
2018-10-17T05:11:55.597Z,7.54
2018-10-17T05:12:55.600Z,7.60
2018-10-17T05:13:55.582Z,7.57
2018-10-17T05:14:55.576Z,7.57
2018-10-17T05:15:55.572Z,7.61
2018-10-17T05:16:55.594Z,7.63
2018-10-17T05:17:55.574Z,7.75
2018-10-17T05:18:55.562Z,7.72
2018-10-17T05:19:55.549Z,7.60
2018-10-17T05:20:55.547Z,7.66
2018-10-17T05:21:55.532Z,7.63
2018-10-17T05:22:55.533Z,7.66
2018-10-17T05:23:55.525Z,7.57
2018-10-17T05:24:55.523Z,7.57
2018-10-17T05:25:55.510Z,7.54
2018-10-17T05:26:55.504Z,7.56
2018-10-17T05:27:55.498Z,7.63
2018-10-17T05:28:55.525Z,7.61
2018-10-17T05:29:55.512Z,7.56
2018-10-17T05:30:55.531Z,7.54
2018-10-17T05:31:55.471Z,7.58
2018-10-17T05:32:55.467Z,7.58
2018-10-17T05:33:55.461Z,7.57
2018-10-17T05:35:55.447Z,7.57
2018-10-17T05:36:55.465Z,7.57
2018-10-17T05:37:55.450Z,7.54
2018-10-17T05:38:55.430Z,7.60
2018-10-17T05:39:55.423Z,7.56
2018-10-17T05:40:55.473Z,7.58
2018-10-17T05:41:55.410Z,7.60
2018-10-17T05:42:55.422Z,7.53
2018-10-17T05:43:55.398Z,7.58
2018-10-17T05:44:55.393Z,7.57
2018-10-17T05:45:55.388Z,7.60
2018-10-17T05:46:55.414Z,7.58
2018-10-17T05:47:55.370Z,7.54
2018-10-17T05:48:55.427Z,7.53
2018-10-17T05:49:55.366Z,7.58
2018-10-17T05:50:55.353Z,7.63
2018-10-17T05:51:55.350Z,7.69
2018-10-17T05:52:55.381Z,7.58
2018-10-17T05:53:55.336Z,7.61
2018-10-17T05:54:55.339Z,7.66
2018-10-17T05:55:55.324Z,7.61
2018-10-17T05:56:55.325Z,7.67
2018-10-17T05:57:55.314Z,7.73
2018-10-17T05:58:55.330Z,7.76
2018-10-17T05:59:55.301Z,7.70
2018-10-17T06:00:55.352Z,7.69
2018-10-17T06:01:55.345Z,7.70
2018-10-17T06:02:55.277Z,7.75
2018-10-17T06:03:55.275Z,7.73
2018-10-17T06:04:55.299Z,7.73
2018-10-17T06:05:55.266Z,7.77
2018-10-17T06:06:55.308Z,7.91
2018-10-17T06:07:55.252Z,7.85
2018-10-17T06:08:55.247Z,7.91
2018-10-17T06:09:55.234Z,7.87
2018-10-17T06:10:55.242Z,7.98
2018-10-17T06:11:55.223Z,8.00
2018-10-17T06:12:55.277Z,7.98
2018-10-17T06:13:55.216Z,8.05
2018-10-17T06:14:55.208Z,8.10
2018-10-17T06:15:55.212Z,8.10
2018-10-17T06:16:55.329Z,8.15
2018-10-17T06:17:55.191Z,8.16
2018-10-17T06:18:55.223Z,8.15
2018-10-17T06:19:55.175Z,8.16
2018-10-17T06:20:55.173Z,8.16
2018-10-17T06:21:55.166Z,8.16
2018-10-17T06:22:55.224Z,8.16
2018-10-17T06:23:55.155Z,8.15
2018-10-17T06:24:55.167Z,8.15
2018-10-17T06:25:55.144Z,8.18
2018-10-17T06:26:55.141Z,8.18
2018-10-17T06:27:55.131Z,8.16
2018-10-17T06:28:55.177Z,8.13
2018-10-17T06:29:55.119Z,8.15
2018-10-17T06:30:55.121Z,8.18
2018-10-17T06:31:55.103Z,8.31
2018-10-17T06:32:55.102Z,8.34
2018-10-17T06:33:55.159Z,8.31
2018-10-17T06:34:55.092Z,8.34
2018-10-17T06:35:55.082Z,8.41
2018-10-17T06:36:55.132Z,8.44
2018-10-17T06:37:55.069Z,8.48
2018-10-17T06:38:55.058Z,8.51
2018-10-17T06:39:55.049Z,8.53
2018-10-17T06:40:55.076Z,8.56
2018-10-17T06:41:55.044Z,8.64
2018-10-17T06:42:55.060Z,8.66
2018-10-17T06:43:55.072Z,8.76
2018-10-17T06:44:55.022Z,8.85
2018-10-17T06:45:55.026Z,8.78
2018-10-17T06:46:55.028Z,8.84
2018-10-17T06:47:55.011Z,8.79
2018-10-17T06:48:55.000Z,8.89
2018-10-17T06:49:54.994Z,8.94
2018-10-17T06:50:54.988Z,8.91
2018-10-17T06:51:54.986Z,8.95
2018-10-17T06:52:54.988Z,9.04
2018-10-17T06:53:55.079Z,9.06
2018-10-17T06:54:55.009Z,9.11
2018-10-17T06:55:54.958Z,9.08
2018-10-17T06:56:54.948Z,9.16
2018-10-17T06:57:54.944Z,9.26
2018-10-17T06:58:54.979Z,9.22
2018-10-17T06:59:54.934Z,9.40
2018-10-17T07:00:54.949Z,9.44
2018-10-17T07:01:55.005Z,9.59
2018-10-17T07:02:54.931Z,9.61
2018-10-17T07:03:54.913Z,9.59
2018-10-17T07:04:54.921Z,9.69
2018-10-17T07:05:54.899Z,9.80
2018-10-17T07:06:54.944Z,9.92
2018-10-17T07:07:54.892Z,10.02
2018-10-17T07:08:54.884Z,10.12
2018-10-17T07:09:54.884Z,10.16
2018-10-17T07:10:54.915Z,10.20
2018-10-17T07:11:54.865Z,10.30
2018-10-17T07:12:54.873Z,10.26
2018-10-17T07:13:54.854Z,10.40
2018-10-17T07:14:54.853Z,10.37
2018-10-17T07:15:54.930Z,10.48
2018-10-17T07:16:54.846Z,10.51
2018-10-17T07:17:54.836Z,10.64
2018-10-17T07:18:54.843Z,10.59
2018-10-17T07:19:54.823Z,10.67
2018-10-17T07:20:54.818Z,10.60
2018-10-17T07:21:54.813Z,10.74
2018-10-17T07:22:54.852Z,10.84
2018-10-17T07:23:54.801Z,10.89
2018-10-17T07:24:54.825Z,10.87
2018-10-17T07:25:54.789Z,10.87
2018-10-17T07:26:54.793Z,10.92
2018-10-17T07:27:54.781Z,10.90
2018-10-17T07:28:54.884Z,10.90
2018-10-17T07:29:54.869Z,11.04
2018-10-17T07:30:54.769Z,11.08
2018-10-17T07:31:54.763Z,11.15
2018-10-17T07:32:54.755Z,11.22
2018-10-17T07:33:54.751Z,11.27
2018-10-17T07:34:54.741Z,11.37
2018-10-17T07:35:54.799Z,11.45
2018-10-17T07:36:54.737Z,11.50
2018-10-17T07:37:54.732Z,11.52
2018-10-17T07:38:54.730Z,11.57
2018-10-17T07:39:54.732Z,11.70
2018-10-17T07:40:54.716Z,11.70
2018-10-17T07:41:54.721Z,11.77
2018-10-17T07:42:54.715Z,11.70
2018-10-17T07:43:54.703Z,11.94
2018-10-17T07:44:54.701Z,11.99
2018-10-17T07:45:54.692Z,12.00
2018-10-17T07:46:54.687Z,12.09
2018-10-17T07:47:54.689Z,12.15
2018-10-17T07:48:54.676Z,12.24
2018-10-17T07:49:54.673Z,12.28
2018-10-17T07:50:54.752Z,12.42
2018-10-17T07:51:54.667Z,12.53
2018-10-17T07:52:54.661Z,12.55
2018-10-17T07:53:54.686Z,12.62
2018-10-17T07:54:54.652Z,12.67
2018-10-17T07:55:54.653Z,12.72
2018-10-17T07:56:54.644Z,12.64
2018-10-17T07:57:54.636Z,12.73
2018-10-17T07:58:54.634Z,12.78
2018-10-17T07:59:54.800Z,12.87
2018-10-17T08:00:54.625Z,12.90
2018-10-17T08:01:54.641Z,12.97
2018-10-17T08:02:54.622Z,13.13
2018-10-17T08:03:54.613Z,13.09
2018-10-17T08:04:54.608Z,13.18
2018-10-17T08:05:54.639Z,13.22
2018-10-17T08:06:54.596Z,13.28
2018-10-17T08:07:54.592Z,13.33
2018-10-17T08:08:55.387Z,13.44
2018-10-17T08:09:54.588Z,13.53
2018-10-17T08:10:54.579Z,13.54
2018-10-17T08:11:54.595Z,13.57
2018-10-17T08:12:54.574Z,13.60
2018-10-17T08:13:54.660Z,13.65
2018-10-17T08:14:54.648Z,13.67
2018-10-17T08:15:54.561Z,13.63
2018-10-17T08:16:54.557Z,13.67
2018-10-17T08:17:54.564Z,13.68
2018-10-17T08:18:54.553Z,13.67
2018-10-17T08:19:54.549Z,13.70
2018-10-17T08:20:54.548Z,13.79
2018-10-17T08:21:54.540Z,13.79
2018-10-17T08:22:54.539Z,13.78
2018-10-17T08:23:54.601Z,13.78
2018-10-17T08:24:54.533Z,13.87
2018-10-17T08:25:54.519Z,13.86
2018-10-17T08:26:55.391Z,14.08
2018-10-17T08:27:54.516Z,14.04
2018-10-17T08:28:54.512Z,14.17
2018-10-17T08:29:54.570Z,14.14
2018-10-17T08:30:54.503Z,14.28
2018-10-17T08:31:54.504Z,14.23
2018-10-17T08:32:54.500Z,14.32
2018-10-17T08:33:54.497Z,14.47
2018-10-17T08:34:54.489Z,14.50
2018-10-17T08:35:54.641Z,14.53
2018-10-17T08:36:54.681Z,14.59
2018-10-17T08:37:54.704Z,14.60
2018-10-17T08:38:54.537Z,14.65
2018-10-17T08:39:54.477Z,14.68
2018-10-17T08:40:54.525Z,14.69
2018-10-17T08:41:54.471Z,14.72
2018-10-17T08:42:54.463Z,14.88
2018-10-17T08:43:54.515Z,14.85
2018-10-17T08:44:54.462Z,14.86
2018-10-17T08:45:54.532Z,14.99
2018-10-17T08:46:54.456Z,14.92
2018-10-17T08:47:54.446Z,15.03
2018-10-17T08:48:54.439Z,15.09
2018-10-17T08:49:54.475Z,15.09
2018-10-17T08:50:54.434Z,15.14
2018-10-17T08:51:54.433Z,15.14
2018-10-17T08:52:54.426Z,15.21
2018-10-17T08:53:54.427Z,15.28
2018-10-17T08:54:54.420Z,15.24
2018-10-17T08:55:54.433Z,15.24
2018-10-17T08:56:54.416Z,15.35
2018-10-17T08:57:54.510Z,15.31
2018-10-17T08:58:54.449Z,15.36
2018-10-17T08:59:54.410Z,15.37
2018-10-17T09:00:54.418Z,15.39
2018-10-17T09:01:54.413Z,15.43
2018-10-17T09:02:54.405Z,15.37
2018-10-17T09:03:54.395Z,15.43
2018-10-17T09:04:54.397Z,15.51
2018-10-17T09:05:54.434Z,15.51
2018-10-17T09:06:54.389Z,15.57
2018-10-17T09:07:54.439Z,15.51
2018-10-17T09:08:54.384Z,15.65
2018-10-17T09:09:54.385Z,15.70
2018-10-17T09:10:54.377Z,15.77
2018-10-17T09:11:54.389Z,15.84
2018-10-17T09:12:54.375Z,15.91
2018-10-17T09:13:54.380Z,16.10
2018-10-17T09:14:54.368Z,16.16
2018-10-17T09:15:54.403Z,16.29
2018-10-17T09:16:54.361Z,16.38
2018-10-17T09:17:54.415Z,16.46
2018-10-17T09:18:54.358Z,16.43
2018-10-17T09:19:54.628Z,16.49
2018-10-17T09:20:54.911Z,16.47
2018-10-17T09:21:54.538Z,16.46
2018-10-17T09:22:54.345Z,16.54
2018-10-17T09:23:54.405Z,16.65
2018-10-17T09:24:54.385Z,16.54
2018-10-17T09:25:54.337Z,16.57
2018-10-17T09:26:54.340Z,16.61
2018-10-17T09:27:54.397Z,16.65
2018-10-17T09:28:54.330Z,16.69
2018-10-17T09:29:54.398Z,16.75
2018-10-17T09:30:54.333Z,16.97
2018-10-17T09:31:54.320Z,17.05
2018-10-17T09:32:54.324Z,17.12
2018-10-17T09:33:54.335Z,17.19
2018-10-17T09:34:54.336Z,17.26
2018-10-17T09:35:54.349Z,17.26
2018-10-17T09:36:54.763Z,17.33
2018-10-17T09:37:54.699Z,17.48
2018-10-17T09:38:54.386Z,17.41
2018-10-17T09:39:54.354Z,17.51
2018-10-17T09:40:54.805Z,17.49
2018-10-17T09:41:54.489Z,17.44
2018-10-17T09:42:54.549Z,17.45
2018-10-17T09:43:54.319Z,17.51
2018-10-17T09:44:54.384Z,17.67
2018-10-17T09:46:54.658Z,17.74
2018-10-17T09:48:54.289Z,17.82
2018-10-17T09:49:54.371Z,17.83
2018-10-17T09:50:55.283Z,17.87
2018-10-17T09:51:56.182Z,17.83
2018-10-17T09:52:54.902Z,17.92
2018-10-17T09:53:54.347Z,18.00
2018-10-17T09:54:54.445Z,18.01
2018-10-17T09:55:56.522Z,17.92
2018-10-17T09:56:54.323Z,18.00
2018-10-17T09:57:54.286Z,18.00
2018-10-17T09:58:54.272Z,18.01
2018-10-17T10:00:55.144Z,18.00
2018-10-17T10:01:54.266Z,18.07
2018-10-17T10:02:54.425Z,17.97
2018-10-17T10:03:54.477Z,17.98
2018-10-17T10:04:55.488Z,18.16
2018-10-17T10:05:54.280Z,18.18
2018-10-17T10:06:54.323Z,18.33
2018-10-17T10:07:54.372Z,18.41
2018-10-17T10:08:54.257Z,18.47
2018-10-17T10:09:54.420Z,18.52
2018-10-17T10:10:54.547Z,18.50
2018-10-17T10:11:56.354Z,18.55
2018-10-17T10:12:54.501Z,18.56
2018-10-17T10:13:54.386Z,18.58
2018-10-17T10:14:54.348Z,18.53
2018-10-17T10:15:54.932Z,18.60
2018-10-17T10:16:54.383Z,18.56
2018-10-17T10:17:54.255Z,18.56
2018-10-17T10:18:54.822Z,18.59
2018-10-17T10:19:54.585Z,18.68
2018-10-17T10:20:54.914Z,18.75
2018-10-17T10:21:54.531Z,18.80
2018-10-17T10:23:54.940Z,18.96
2018-10-17T10:24:55.545Z,19.11
2018-10-17T10:25:54.405Z,19.09
2018-10-17T10:26:54.364Z,19.16
2018-10-17T10:27:54.247Z,19.24
2018-10-17T10:28:54.320Z,19.24
2018-10-17T10:29:54.611Z,19.33
2018-10-17T10:30:54.754Z,19.37
2018-10-17T10:31:54.925Z,19.36
2018-10-17T10:32:54.631Z,19.36
2018-10-17T10:33:54.240Z,19.36
2018-10-17T10:34:54.290Z,19.37
2018-10-17T10:35:54.993Z,19.36
2018-10-17T10:36:54.964Z,19.40
2018-10-17T10:37:54.246Z,19.37
2018-10-17T10:38:54.312Z,19.47
2018-10-17T10:39:54.399Z,19.48
2018-10-17T10:40:54.356Z,19.49
2018-10-17T10:41:54.267Z,19.40
2018-10-17T10:42:55.048Z,19.44
2018-10-17T10:43:54.456Z,19.39
2018-10-17T10:44:54.435Z,19.39
2018-10-17T10:45:54.334Z,19.47
2018-10-17T10:46:54.370Z,19.45
2018-10-17T10:47:54.245Z,19.45
2018-10-17T10:48:54.292Z,19.55
2018-10-17T10:49:54.288Z,19.52
2018-10-17T10:50:54.261Z,19.52
2018-10-17T10:51:54.213Z,19.67
2018-10-17T10:52:54.270Z,19.71
2018-10-17T10:53:54.260Z,19.71
2018-10-17T10:54:54.213Z,19.63
2018-10-17T10:55:54.248Z,19.74
2018-10-17T10:56:54.253Z,19.74
2018-10-17T10:57:54.244Z,19.81
2018-10-17T10:58:54.263Z,19.89
2018-10-17T10:59:54.236Z,19.95
2018-10-17T11:00:54.212Z,20.00
2018-10-17T11:01:54.232Z,20.04
2018-10-17T11:02:54.252Z,20.00
2018-10-17T11:03:54.211Z,19.96
2018-10-17T11:04:54.281Z,19.95
2018-10-17T11:05:54.207Z,19.95
2018-10-17T11:06:54.210Z,20.04
2018-10-17T11:07:54.211Z,20.04
2018-10-17T11:08:54.207Z,20.18
2018-10-17T11:09:54.208Z,20.22
2018-10-17T11:10:54.240Z,20.22
2018-10-17T11:11:54.215Z,20.25
2018-10-17T11:12:54.206Z,20.21
2018-10-17T11:13:54.275Z,20.32
2018-10-17T11:14:54.328Z,20.32
2018-10-17T11:15:54.204Z,20.34
2018-10-17T11:16:54.266Z,20.31
2018-10-17T11:17:54.204Z,20.32
2018-10-17T11:18:54.213Z,20.47
2018-10-17T11:19:54.209Z,20.51
2018-10-17T11:20:54.210Z,20.50
2018-10-17T11:21:54.241Z,20.56
2018-10-17T11:22:54.214Z,20.59
2018-10-17T11:23:54.206Z,20.52
2018-10-17T11:24:54.206Z,20.60
2018-10-17T11:25:54.202Z,20.51
2018-10-17T11:26:54.264Z,20.44
2018-10-17T11:27:54.207Z,20.52
2018-10-17T11:28:54.220Z,20.50
2018-10-17T11:29:54.199Z,20.56
2018-10-17T11:30:54.204Z,20.62
2018-10-17T11:31:54.291Z,20.75
2018-10-17T11:32:54.237Z,20.75
2018-10-17T11:33:54.204Z,20.69
2018-10-17T11:34:54.229Z,20.72
2018-10-17T11:35:54.206Z,20.74
2018-10-17T11:36:54.209Z,20.77
2018-10-17T11:37:54.265Z,20.92
2018-10-17T11:38:54.277Z,20.87
2018-10-17T11:39:54.236Z,20.78
2018-10-17T11:40:54.309Z,20.88
2018-10-17T11:41:54.202Z,20.92
2018-10-17T11:42:54.203Z,20.90
2018-10-17T11:43:54.208Z,20.93
2018-10-17T11:44:54.224Z,21.03
2018-10-17T11:45:54.221Z,21.05
2018-10-17T11:46:54.256Z,20.97
2018-10-17T11:47:54.241Z,21.11
2018-10-17T11:48:54.211Z,21.05
2018-10-17T11:49:54.206Z,21.00
2018-10-17T11:50:54.221Z,21.02
2018-10-17T11:51:54.375Z,20.96
2018-10-17T11:52:54.223Z,21.03
2018-10-17T11:53:54.212Z,21.00
2018-10-17T11:54:54.208Z,21.09
2018-10-17T11:55:54.214Z,21.12
2018-10-17T11:56:54.218Z,20.96
2018-10-17T11:57:54.211Z,21.05
2018-10-17T11:58:54.268Z,20.96
2018-10-17T11:59:54.211Z,21.00
2018-10-17T12:00:54.214Z,21.03
2018-10-17T12:01:54.214Z,21.05
2018-10-17T12:02:54.221Z,21.11
2018-10-17T12:03:54.307Z,21.06
2018-10-17T12:04:54.387Z,20.97
2018-10-17T12:05:54.367Z,21.02
2018-10-17T12:06:54.220Z,20.93
2018-10-17T12:07:54.219Z,21.00
2018-10-17T12:08:54.291Z,21.00
2018-10-17T12:09:54.217Z,21.02
2018-10-17T12:10:54.217Z,20.99
2018-10-17T12:11:54.303Z,21.07
2018-10-17T12:12:54.217Z,20.93
2018-10-17T12:13:54.219Z,21.02
2018-10-17T12:14:54.241Z,21.00
2018-10-17T12:15:54.962Z,20.97
2018-10-17T12:16:54.221Z,21.03
2018-10-17T12:17:54.242Z,20.97
2018-10-17T12:18:54.230Z,20.99
2018-10-17T12:19:54.302Z,21.02
2018-10-17T12:20:54.276Z,21.07
2018-10-17T12:21:54.224Z,21.07
2018-10-17T12:22:54.222Z,21.15
2018-10-17T12:23:54.233Z,21.12
2018-10-17T12:24:54.228Z,21.17
2018-10-17T12:25:54.225Z,21.17
2018-10-17T12:26:54.274Z,21.21
2018-10-17T12:27:54.266Z,21.17
2018-10-17T12:28:54.373Z,21.05
2018-10-17T12:29:54.243Z,21.17
2018-10-17T12:30:54.230Z,21.12
2018-10-17T12:31:54.233Z,21.20
2018-10-17T12:32:54.229Z,21.00
2018-10-17T12:33:54.237Z,21.09
2018-10-17T12:34:54.260Z,21.20
2018-10-17T12:35:54.233Z,21.20
2018-10-17T12:36:54.241Z,21.21
2018-10-17T12:37:54.237Z,21.17
2018-10-17T12:38:54.307Z,21.17
2018-10-17T12:39:54.378Z,21.17
2018-10-17T12:40:54.463Z,21.11
2018-10-17T12:41:54.240Z,21.20
2018-10-17T12:42:54.244Z,21.15
2018-10-17T12:43:54.251Z,21.09
2018-10-17T12:44:54.238Z,21.25
2018-10-17T12:45:54.241Z,21.15
2018-10-17T12:46:54.244Z,21.17
2018-10-17T12:47:54.245Z,21.11
2018-10-17T12:48:54.301Z,21.11
2018-10-17T12:49:54.278Z,21.18
2018-10-17T12:50:54.245Z,21.11
2018-10-17T12:51:54.294Z,20.99
2018-10-17T12:52:54.325Z,21.07
2018-10-17T12:53:54.245Z,21.00
2018-10-17T12:54:54.308Z,21.07
2018-10-17T12:55:54.253Z,21.22
2018-10-17T12:56:54.262Z,21.12
2018-10-17T12:57:54.250Z,21.20
2018-10-17T12:58:54.298Z,21.12
2018-10-17T12:59:54.255Z,21.14
2018-10-17T13:00:54.304Z,21.15
2018-10-17T13:01:54.250Z,21.15
2018-10-17T13:02:54.253Z,21.15
2018-10-17T13:03:54.252Z,21.07
2018-10-17T13:04:54.264Z,21.06
2018-10-17T13:05:54.250Z,21.05
2018-10-17T13:06:54.257Z,21.20
2018-10-17T13:07:54.255Z,21.11
2018-10-17T13:08:54.259Z,21.14
2018-10-17T13:09:54.259Z,21.15
2018-10-17T13:10:54.274Z,21.12
2018-10-17T13:11:54.258Z,21.14